createdAt,value
2018-06-13T00:02:17.699Z,11.70
2018-06-13T00:04:46.687Z,11.80
2018-06-13T00:07:15.819Z,11.90
2018-06-13T00:09:45.374Z,11.80
2018-06-13T00:12:14.649Z,11.70
2018-06-13T00:14:44.127Z,11.70
2018-06-13T00:17:13.891Z,11.80
2018-06-13T00:19:43.566Z,11.80
2018-06-13T00:22:12.936Z,11.70
2018-06-13T00:24:42.715Z,11.80
2018-06-13T00:27:11.914Z,11.70
2018-06-13T00:29:41.529Z,11.70
2018-06-13T00:32:10.628Z,11.70
2018-06-13T00:34:40.258Z,11.70
2018-06-13T00:37:09.260Z,11.90
2018-06-13T00:39:38.550Z,11.90
2018-06-13T00:42:07.718Z,11.90
2018-06-13T00:44:37.048Z,11.90
2018-06-13T00:47:06.261Z,11.90
2018-06-13T00:49:35.687Z,12.00
2018-06-13T00:52:05.121Z,12.00
2018-06-13T00:54:34.890Z,12.00
2018-06-13T00:57:04.172Z,12.00
2018-06-13T00:59:33.740Z,12.10
2018-06-13T01:02:03.068Z,12.00
2018-06-13T01:04:32.401Z,12.00
2018-06-13T01:07:01.677Z,12.00
2018-06-13T01:09:31.021Z,12.10
2018-06-13T01:12:00.631Z,12.10
2018-06-13T01:14:29.764Z,12.20
2018-06-13T01:16:59.111Z,12.20
2018-06-13T01:19:28.423Z,12.20
2018-06-13T01:21:58.007Z,12.10
2018-06-13T01:24:27.412Z,12.20
2018-06-13T01:26:57.017Z,12.10
2018-06-13T01:29:26.221Z,12.20
2018-06-13T01:31:55.736Z,12.30
2018-06-13T01:34:24.807Z,12.20
2018-06-13T01:36:53.995Z,12.30
2018-06-13T01:39:23.243Z,12.30
2018-06-13T01:41:52.473Z,12.30
2018-06-13T01:44:21.711Z,12.20
2018-06-13T01:46:50.884Z,12.20
2018-06-13T01:49:20.266Z,12.20
2018-06-13T01:51:49.545Z,12.10
2018-06-13T01:54:18.699Z,12.10
2018-06-13T01:56:47.954Z,12.10
2018-06-13T01:59:17.103Z,12.10
2018-06-13T02:01:46.686Z,12.10
2018-06-13T02:04:16.157Z,12.20
2018-06-13T02:06:45.667Z,12.20
2018-06-13T02:09:14.919Z,12.30
2018-06-13T02:11:44.599Z,12.30
2018-06-13T02:14:13.729Z,12.30
2018-06-13T02:16:43.111Z,12.10
2018-06-13T02:19:12.403Z,12.10
2018-06-13T02:21:41.644Z,12.20
2018-06-13T02:24:10.825Z,12.30
2018-06-13T02:26:40.253Z,12.30
2018-06-13T02:29:09.636Z,12.40
2018-06-13T02:31:38.858Z,12.40
2018-06-13T02:34:08.354Z,12.30
2018-06-13T02:36:37.526Z,12.30
2018-06-13T02:39:08.515Z,12.40
2018-06-13T02:41:37.567Z,12.50
2018-06-13T02:44:07.036Z,12.50
2018-06-13T02:46:36.175Z,12.60
2018-06-13T02:49:05.663Z,12.50
2018-06-13T02:51:35.221Z,12.50
2018-06-13T02:54:04.642Z,12.60
2018-06-13T02:56:33.897Z,12.60
2018-06-13T02:59:03.231Z,12.60
2018-06-13T03:01:32.549Z,12.70
2018-06-13T03:04:01.813Z,12.70
2018-06-13T03:06:31.194Z,12.70
2018-06-13T03:09:00.736Z,12.80
2018-06-13T03:11:30.197Z,12.90
2018-06-13T03:13:59.439Z,12.90
2018-06-13T03:16:28.800Z,13.00
2018-06-13T03:18:58.343Z,12.90
2018-06-13T03:21:27.365Z,12.90
2018-06-13T03:23:56.751Z,12.80
2018-06-13T03:26:26.173Z,12.80
2018-06-13T03:28:55.271Z,12.90
2018-06-13T03:31:24.706Z,13.00
2018-06-13T03:33:54.571Z,13.00
2018-06-13T03:36:24.013Z,12.90
2018-06-13T03:38:53.249Z,13.00
2018-06-13T03:41:22.609Z,13.00
2018-06-13T03:43:52.042Z,12.90
2018-06-13T03:46:21.597Z,13.00
2018-06-13T03:48:50.804Z,13.10
2018-06-13T03:51:20.120Z,13.10
2018-06-13T03:53:49.192Z,13.10
2018-06-13T03:56:18.596Z,13.00
2018-06-13T03:58:47.912Z,13.00
2018-06-13T04:01:17.035Z,13.20
2018-06-13T04:03:46.484Z,13.30
2018-06-13T04:06:15.519Z,13.30
2018-06-13T04:08:45.247Z,13.30
2018-06-13T04:11:14.499Z,13.30
2018-06-13T04:13:43.877Z,13.30
2018-06-13T04:16:13.164Z,13.20
2018-06-13T04:18:42.464Z,13.30
2018-06-13T04:21:12.195Z,13.30
2018-06-13T04:23:41.499Z,13.40
2018-06-13T04:26:10.561Z,13.30
2018-06-13T04:28:39.675Z,13.40
2018-06-13T04:31:10.235Z,13.60
2018-06-13T04:33:40.334Z,13.60
2018-06-13T04:36:09.564Z,13.60
2018-06-13T04:38:39.235Z,13.70
2018-06-13T04:41:08.736Z,13.80
2018-06-13T04:43:38.184Z,13.80
2018-06-13T04:46:07.414Z,13.80
2018-06-13T04:48:36.759Z,13.90
2018-06-13T04:51:05.724Z,14.00
2018-06-13T04:53:35.230Z,14.10
2018-06-13T04:56:04.885Z,14.20
2018-06-13T04:58:34.418Z,14.30
2018-06-13T05:01:03.885Z,14.30
2018-06-13T05:03:33.121Z,14.30
2018-06-13T05:06:02.336Z,14.30
2018-06-13T05:08:31.802Z,14.30
2018-06-13T05:11:01.471Z,14.20
2018-06-13T05:13:30.704Z,14.00
2018-06-13T05:15:59.998Z,14.00
2018-06-13T05:18:29.288Z,14.10
2018-06-13T05:20:58.745Z,14.10
2018-06-13T05:23:28.319Z,14.20
2018-06-13T05:28:26.736Z,14.20
2018-06-13T05:30:56.144Z,14.40
2018-06-13T05:33:25.430Z,14.40
2018-06-13T05:35:54.840Z,14.40
2018-06-13T05:38:24.185Z,14.30
2018-06-13T05:40:53.761Z,14.40
2018-06-13T05:43:23.309Z,14.50
2018-06-13T05:45:52.784Z,14.40
2018-06-13T05:48:22.297Z,14.30
2018-06-13T05:50:51.734Z,14.40
2018-06-13T05:53:20.809Z,14.50
2018-06-13T05:55:50.644Z,14.50
2018-06-13T06:00:48.756Z,14.40
2018-06-13T06:03:18.005Z,14.50
2018-06-13T06:05:47.040Z,14.60
2018-06-13T06:08:16.239Z,14.60
2018-06-13T06:10:45.759Z,14.60
2018-06-13T06:13:14.999Z,14.70
2018-06-13T06:15:44.244Z,14.60
2018-06-13T06:18:13.350Z,14.70
2018-06-13T06:20:42.819Z,14.70
2018-06-13T06:23:12.014Z,14.70
2018-06-13T06:25:41.356Z,14.60
2018-06-13T06:28:10.695Z,14.70
2018-06-13T06:30:40.247Z,14.60
2018-06-13T06:33:09.545Z,14.50
2018-06-13T06:35:39.467Z,14.60
2018-06-13T06:38:08.873Z,14.70
2018-06-13T06:40:38.272Z,14.60
2018-06-13T06:43:07.771Z,14.50
2018-06-13T06:45:37.323Z,14.50
2018-06-13T06:48:06.712Z,14.70
2018-06-13T06:50:35.898Z,14.80
2018-06-13T06:53:05.751Z,14.80
2018-06-13T06:55:35.085Z,14.90
2018-06-13T06:58:04.024Z,15.00
2018-06-13T07:00:33.733Z,15.00
2018-06-13T07:03:02.804Z,15.10
2018-06-13T07:05:32.042Z,15.20
2018-06-13T07:08:01.279Z,15.20
2018-06-13T07:10:30.427Z,15.20
2018-06-13T07:12:59.735Z,15.10
2018-06-13T07:15:29.950Z,15.30
2018-06-13T07:17:59.078Z,15.40
2018-06-13T07:20:28.741Z,15.60
2018-06-13T07:22:58.016Z,15.50
2018-06-13T07:25:27.229Z,15.50
2018-06-13T07:27:56.484Z,15.40
2018-06-13T07:30:25.667Z,15.40
2018-06-13T07:32:54.988Z,15.60
2018-06-13T07:35:24.239Z,15.60
2018-06-13T07:37:53.154Z,15.60
2018-06-13T07:40:22.504Z,15.60
2018-06-13T07:42:51.780Z,15.50
2018-06-13T07:45:21.050Z,15.60
2018-06-13T07:47:50.375Z,15.60
2018-06-13T07:50:19.632Z,15.80
2018-06-13T07:52:48.812Z,15.90
2018-06-13T07:55:18.010Z,16.00
2018-06-13T07:57:48.185Z,16.00
2018-06-13T08:00:17.264Z,16.00
2018-06-13T08:02:46.734Z,16.10
2018-06-13T08:05:15.899Z,16.20
2018-06-13T08:07:45.528Z,16.30
2018-06-13T08:10:14.819Z,16.30
2018-06-13T08:12:43.887Z,16.20
2018-06-13T08:15:13.238Z,16.50
2018-06-13T08:20:11.499Z,16.50
2018-06-13T08:22:40.920Z,16.40
2018-06-13T08:27:51.375Z,16.60
2018-06-13T08:30:20.736Z,16.60
2018-06-13T08:32:49.890Z,16.70
2018-06-13T08:35:19.296Z,16.90
2018-06-13T08:40:17.119Z,17.30
2018-06-13T08:42:46.976Z,17.50
2018-06-13T08:45:16.135Z,17.50
2018-06-13T08:47:45.421Z,17.70
2018-06-13T08:50:14.755Z,17.60
2018-06-13T08:52:43.935Z,17.50
2018-06-13T08:55:13.467Z,17.50
2018-06-13T08:57:43.096Z,17.70
2018-06-13T09:00:12.362Z,17.60
2018-06-13T09:02:41.907Z,17.80
2018-06-13T09:05:10.968Z,17.80
2018-06-13T09:07:40.304Z,17.90
2018-06-13T09:10:09.704Z,17.70
2018-06-13T09:12:39.193Z,18.10
2018-06-13T09:15:08.480Z,18.20
2018-06-13T09:17:38.180Z,18.10
2018-06-13T09:20:07.488Z,18.30
2018-06-13T09:22:37.055Z,18.40
2018-06-13T09:25:06.356Z,18.40
2018-06-13T09:27:36.026Z,18.30
2018-06-13T09:30:05.103Z,18.20
2018-06-13T09:32:34.432Z,17.60
2018-06-13T09:35:03.746Z,17.90
2018-06-13T09:37:33.042Z,18.00
2018-06-13T09:40:02.651Z,18.20
2018-06-13T09:42:31.932Z,18.40
2018-06-13T09:45:01.129Z,18.60
2018-06-13T09:47:30.031Z,18.70
2018-06-13T09:49:59.372Z,18.80
2018-06-13T09:52:28.448Z,18.80
2018-06-13T09:54:57.540Z,18.40
2018-06-13T09:57:26.706Z,18.40
2018-06-13T10:00:00.838Z,18.50
2018-06-13T10:02:36.375Z,18.30
2018-06-13T10:05:05.894Z,18.20
2018-06-13T10:07:35.077Z,18.30
2018-06-13T10:10:04.069Z,18.30
2018-06-13T10:12:33.432Z,18.30
2018-06-13T10:15:02.739Z,18.40
2018-06-13T10:17:31.940Z,18.50
2018-06-13T10:20:01.385Z,18.20
2018-06-13T10:22:30.475Z,18.10
2018-06-13T10:24:59.744Z,18.00
2018-06-13T10:27:34.165Z,17.80
2018-06-13T10:30:05.513Z,17.60
2018-06-13T10:32:35.489Z,17.60
2018-06-13T10:35:04.636Z,17.60
2018-06-13T10:37:34.154Z,17.60
2018-06-13T10:40:03.766Z,17.80
2018-06-13T10:42:33.500Z,17.80
2018-06-13T10:45:02.660Z,17.80
2018-06-13T10:47:32.889Z,18.00
2018-06-13T10:50:02.035Z,18.20
2018-06-13T10:52:31.466Z,18.20
2018-06-13T10:55:01.098Z,18.40
2018-06-13T10:57:30.380Z,18.50
2018-06-13T10:59:59.613Z,18.70
2018-06-13T11:02:28.743Z,18.70
2018-06-13T11:04:57.924Z,18.50
2018-06-13T11:07:27.154Z,18.50
2018-06-13T11:09:56.164Z,18.30
2018-06-13T11:12:25.892Z,18.50
2018-06-13T11:14:55.008Z,18.30
2018-06-13T11:17:24.215Z,18.20
2018-06-13T11:19:53.659Z,18.20
2018-06-13T11:22:23.112Z,18.30
2018-06-13T11:24:52.793Z,18.40
2018-06-13T11:27:22.326Z,18.20
2018-06-13T11:29:51.600Z,18.60
2018-06-13T11:32:20.870Z,19.50
2018-06-13T11:34:54.335Z,18.90
2018-06-13T11:37:23.589Z,18.70
2018-06-13T11:39:52.903Z,18.90
2018-06-13T11:42:22.017Z,18.90
2018-06-13T11:44:51.567Z,19.30
2018-06-13T11:47:20.728Z,19.40
2018-06-13T11:49:50.026Z,19.40
2018-06-13T11:54:49.028Z,18.70
2018-06-13T11:57:18.939Z,18.90
2018-06-13T11:59:48.181Z,18.80
2018-06-13T12:02:17.449Z,18.70
2018-06-13T12:04:46.951Z,18.40
2018-06-13T12:07:16.405Z,18.20
2018-06-13T12:09:45.645Z,18.40
2018-06-13T12:12:14.997Z,18.50
2018-06-13T12:14:44.372Z,18.70
2018-06-13T12:17:13.617Z,18.90
2018-06-13T12:19:43.003Z,18.70
2018-06-13T12:22:12.358Z,18.90
2018-06-13T12:27:10.791Z,18.70
2018-06-13T12:29:39.907Z,18.60
2018-06-13T12:32:09.363Z,18.50
2018-06-13T12:34:38.536Z,18.30
2018-06-13T12:37:07.894Z,18.30
2018-06-13T12:39:37.429Z,18.10
2018-06-13T12:42:06.721Z,18.00
2018-06-13T12:44:35.884Z,18.00
2018-06-13T12:47:05.288Z,17.90
2018-06-13T12:49:34.445Z,18.00
2018-06-13T12:52:03.752Z,17.80
2018-06-13T12:57:03.097Z,17.70
2018-06-13T12:59:32.557Z,17.80
2018-06-13T13:02:01.684Z,18.00
2018-06-13T13:04:31.261Z,18.00
2018-06-13T13:09:29.675Z,18.10
2018-06-13T13:11:58.942Z,18.00
2018-06-13T13:14:28.397Z,17.90
2018-06-13T13:16:57.744Z,17.80
2018-06-13T13:19:27.069Z,17.80
2018-06-13T13:21:56.296Z,17.70
2018-06-13T13:24:26.091Z,17.70
2018-06-13T13:26:55.573Z,17.70
2018-06-13T13:29:24.913Z,17.70
2018-06-13T13:31:54.328Z,17.40
2018-06-13T13:34:23.677Z,17.40
2018-06-13T13:39:21.871Z,17.20
2018-06-13T13:41:51.507Z,17.20
2018-06-13T13:44:20.933Z,17.10
2018-06-13T13:46:50.333Z,17.20
2018-06-13T13:49:19.522Z,17.10
2018-06-13T13:51:49.150Z,17.00
2018-06-13T13:54:18.564Z,16.90
2018-06-13T13:56:47.949Z,16.90
2018-06-13T13:59:17.543Z,16.80
2018-06-13T14:01:46.806Z,17.00
2018-06-13T14:04:15.991Z,16.90
2018-06-13T14:06:45.156Z,17.00
2018-06-13T14:09:14.564Z,16.80
2018-06-13T14:11:43.827Z,16.70
2018-06-13T14:14:13.188Z,16.60
2018-06-13T14:16:44.659Z,16.80
2018-06-13T14:19:13.846Z,16.80
2018-06-13T14:21:43.072Z,16.90
2018-06-13T14:24:12.166Z,16.90
2018-06-13T14:26:41.750Z,16.80
2018-06-13T14:29:10.916Z,16.80
2018-06-13T14:31:40.101Z,16.90
2018-06-13T14:34:09.394Z,16.90
2018-06-13T14:36:38.745Z,16.90
2018-06-13T14:39:10.088Z,16.90
2018-06-13T14:41:39.384Z,17.00
2018-06-13T14:44:09.093Z,16.90
2018-06-13T14:46:38.346Z,16.70
2018-06-13T14:49:07.416Z,16.70
2018-06-13T14:51:36.965Z,16.60
2018-06-13T14:54:06.604Z,16.60
2018-06-13T14:56:36.294Z,16.60
2018-06-13T14:59:05.911Z,16.70
2018-06-13T15:01:35.318Z,16.60
2018-06-13T15:04:04.643Z,16.60
2018-06-13T15:06:33.882Z,16.70
2018-06-13T15:09:03.687Z,16.60
2018-06-13T15:11:33.266Z,16.60
2018-06-13T15:14:03.605Z,16.60
2018-06-13T15:16:33.929Z,16.60
2018-06-13T15:19:03.372Z,16.60
2018-06-13T15:21:32.616Z,16.60
2018-06-13T15:24:01.921Z,16.70
2018-06-13T15:26:32.010Z,16.60
2018-06-13T15:29:01.307Z,16.50
2018-06-13T15:31:30.652Z,16.50
2018-06-13T15:34:00.109Z,16.50
2018-06-13T15:36:29.523Z,16.50
2018-06-13T15:38:58.960Z,16.60
2018-06-13T15:41:28.194Z,16.50
2018-06-13T15:43:57.754Z,16.50
2018-06-13T15:46:27.017Z,16.50
2018-06-13T15:48:56.401Z,16.50
2018-06-13T15:51:25.760Z,16.50
2018-06-13T15:53:55.263Z,16.50
2018-06-13T15:56:24.615Z,16.40
2018-06-13T15:58:54.190Z,16.40
2018-06-13T16:01:23.554Z,16.50
2018-06-13T16:03:52.970Z,16.50
2018-06-13T16:06:22.288Z,16.60
2018-06-13T16:08:52.011Z,16.60
2018-06-13T16:11:21.431Z,16.60
2018-06-13T16:13:50.988Z,16.60
2018-06-13T16:16:20.250Z,16.60
2018-06-13T16:18:49.558Z,16.50
2018-06-13T16:21:18.890Z,16.40
2018-06-13T16:23:48.020Z,16.40
2018-06-13T16:26:17.213Z,16.40
2018-06-13T16:28:46.401Z,16.40
2018-06-13T16:31:15.669Z,16.40
2018-06-13T16:33:45.321Z,16.30
2018-06-13T16:38:43.822Z,16.30
2018-06-13T16:41:13.067Z,16.20
2018-06-13T16:43:42.323Z,16.20
2018-06-13T16:46:11.755Z,16.20
2018-06-13T16:48:41.084Z,16.10
2018-06-13T16:51:21.403Z,16.20
2018-06-13T16:54:01.340Z,16.20
2018-06-13T16:56:30.430Z,16.20
2018-06-13T16:59:00.016Z,16.20
2018-06-13T17:01:29.224Z,16.20
2018-06-13T17:03:58.679Z,16.30
2018-06-13T17:06:28.021Z,16.30
2018-06-13T17:08:57.078Z,16.30
2018-06-13T17:11:26.320Z,16.20
2018-06-13T17:13:55.908Z,16.20
2018-06-13T17:16:25.270Z,16.20
2018-06-13T17:18:54.540Z,16.10
2018-06-13T17:21:23.883Z,16.10
2018-06-13T17:23:53.200Z,16.10
2018-06-13T17:26:22.597Z,16.00
2018-06-13T17:28:52.090Z,15.90
2018-06-13T17:31:21.241Z,15.90
2018-06-13T17:33:50.626Z,15.80
2018-06-13T17:36:20.105Z,15.80
2018-06-13T17:38:49.717Z,15.70
2018-06-13T17:41:18.864Z,15.70
2018-06-13T17:43:48.519Z,15.60
2018-06-13T17:46:18.037Z,15.60
2018-06-13T17:48:47.400Z,15.60
2018-06-13T17:51:16.797Z,15.60
2018-06-13T17:53:45.868Z,15.50
2018-06-13T17:56:16.004Z,15.50
2018-06-13T17:58:45.393Z,15.50
2018-06-13T18:01:14.946Z,15.50
2018-06-13T18:03:44.231Z,15.50
2018-06-13T18:06:13.631Z,15.50
2018-06-13T18:08:43.309Z,15.50
2018-06-13T18:11:12.500Z,15.50
2018-06-13T18:13:41.785Z,15.50
2018-06-13T18:16:11.258Z,15.50
2018-06-13T18:18:40.727Z,15.60
2018-06-13T18:21:10.119Z,15.70
2018-06-13T18:23:39.583Z,15.70
2018-06-13T18:26:08.996Z,15.70
2018-06-13T18:28:38.268Z,15.60
2018-06-13T18:31:07.690Z,15.60
2018-06-13T18:33:38.194Z,15.50
2018-06-13T18:36:07.635Z,15.50
2018-06-13T18:38:37.342Z,15.50
2018-06-13T18:41:06.443Z,15.50
2018-06-13T18:43:35.974Z,15.50
2018-06-13T18:46:05.730Z,15.50
2018-06-13T18:48:35.373Z,15.50
2018-06-13T18:51:04.865Z,15.40
2018-06-13T18:53:34.425Z,15.40
2018-06-13T18:56:03.929Z,15.50
2018-06-13T18:58:33.309Z,15.50
2018-06-13T19:01:02.665Z,15.50
2018-06-13T19:03:32.503Z,15.50
2018-06-13T19:06:01.722Z,15.40
2018-06-13T19:08:31.229Z,15.40
2018-06-13T19:11:00.425Z,15.40
2018-06-13T19:13:29.998Z,15.40
2018-06-13T19:15:59.161Z,15.40
2018-06-13T19:18:28.629Z,15.40
2018-06-13T19:20:58.050Z,15.40
2018-06-13T19:23:27.899Z,15.40
2018-06-13T19:25:57.256Z,15.40
2018-06-13T19:28:26.414Z,15.40
2018-06-13T19:30:55.970Z,15.30
2018-06-13T19:33:25.065Z,15.40
2018-06-13T19:35:54.249Z,15.40
2018-06-13T19:38:23.663Z,15.40
2018-06-13T19:40:53.033Z,15.50
2018-06-13T19:43:27.809Z,15.50
2018-06-13T19:45:57.009Z,15.30
2018-06-13T19:48:31.319Z,15.20
2018-06-13T19:51:00.671Z,15.30
2018-06-13T19:53:35.385Z,15.30
2018-06-13T19:56:06.569Z,15.30
2018-06-13T19:58:36.912Z,15.40
2018-06-13T20:01:06.584Z,15.40
2018-06-13T20:03:41.182Z,15.40
2018-06-13T20:06:10.688Z,15.40
2018-06-13T20:08:39.932Z,15.30
2018-06-13T20:11:09.377Z,15.30
2018-06-13T20:13:44.020Z,15.30
2018-06-13T20:16:18.701Z,15.40
2018-06-13T20:18:53.308Z,15.20
2018-06-13T20:23:52.780Z,15.20
2018-06-13T20:26:27.401Z,15.20
2018-06-13T20:29:02.328Z,15.20
2018-06-13T20:31:33.398Z,15.30
2018-06-13T20:34:03.111Z,15.20
2018-06-13T20:36:32.706Z,15.20
2018-06-13T20:39:02.068Z,15.20
2018-06-13T20:41:31.332Z,15.20
2018-06-13T20:46:30.151Z,15.20
2018-06-13T20:48:59.729Z,15.20
2018-06-13T20:51:29.197Z,15.20
2018-06-13T20:53:58.565Z,15.10
2018-06-13T20:56:27.925Z,15.20
2018-06-13T20:58:57.759Z,15.20
2018-06-13T21:01:27.278Z,15.20
2018-06-13T21:03:56.487Z,15.20
2018-06-13T21:06:26.402Z,15.20
2018-06-13T21:08:55.622Z,15.20
2018-06-13T21:11:25.149Z,15.20
2018-06-13T21:13:54.567Z,15.20
2018-06-13T21:16:25.225Z,15.20
2018-06-13T21:18:54.341Z,15.20
2018-06-13T21:21:24.229Z,15.20
2018-06-13T21:26:22.499Z,15.20
2018-06-13T21:28:51.700Z,15.20
2018-06-13T21:31:20.988Z,15.20
2018-06-13T21:33:50.169Z,15.20
2018-06-13T21:36:19.264Z,15.20
2018-06-13T21:38:48.371Z,15.20
2018-06-13T21:41:17.571Z,15.20
2018-06-13T21:43:46.749Z,15.10
2018-06-13T21:46:16.341Z,15.10
2018-06-13T21:48:45.872Z,15.10
2018-06-13T21:51:15.180Z,15.10
2018-06-13T21:53:44.395Z,15.10
2018-06-13T21:56:13.679Z,15.20
2018-06-13T21:58:42.720Z,15.10
2018-06-13T22:01:11.864Z,15.10
2018-06-13T22:03:41.073Z,15.00
2018-06-13T22:06:10.316Z,15.00
2018-06-13T22:08:39.722Z,14.90
2018-06-13T22:11:08.873Z,14.90
2018-06-13T22:13:38.122Z,14.80
2018-06-13T22:16:07.537Z,14.80
2018-06-13T22:18:36.870Z,14.80
2018-06-13T22:23:34.901Z,14.70
2018-06-13T22:26:04.068Z,14.80
2018-06-13T22:28:33.401Z,14.70
2018-06-13T22:31:02.778Z,14.60
2018-06-13T22:33:31.901Z,14.60
2018-06-13T22:36:01.429Z,14.60
2018-06-13T22:38:30.566Z,14.50
2018-06-13T22:40:59.874Z,14.50
2018-06-13T22:43:28.898Z,14.40
2018-06-13T22:45:58.175Z,14.30
2018-06-13T22:48:27.750Z,14.30
2018-06-13T22:50:56.851Z,14.40
2018-06-13T22:53:26.065Z,14.30
2018-06-13T22:55:55.448Z,14.30
2018-06-13T22:58:24.633Z,14.20
2018-06-13T23:03:32.171Z,14.20
2018-06-13T23:06:03.486Z,14.10
2018-06-13T23:08:33.999Z,14.10
2018-06-13T23:11:02.963Z,14.10
2018-06-13T23:13:32.296Z,14.20
2018-06-13T23:16:01.503Z,14.30
2018-06-13T23:18:31.123Z,14.30
2018-06-13T23:21:00.578Z,14.30
2018-06-13T23:23:30.109Z,14.30
2018-06-13T23:25:59.425Z,14.20
2018-06-13T23:28:29.008Z,14.20
2018-06-13T23:30:58.294Z,14.10
2018-06-13T23:33:27.573Z,14.20
2018-06-13T23:35:56.704Z,14.10
2018-06-13T23:38:25.913Z,14.10
2018-06-13T23:40:55.093Z,14.10
2018-06-13T23:43:24.508Z,14.00
2018-06-13T23:45:53.662Z,14.00
2018-06-13T23:48:22.648Z,14.00
2018-06-13T23:50:51.640Z,14.00
2018-06-13T23:53:20.877Z,13.90
2018-06-13T23:55:50.077Z,13.90
2018-06-13T23:58:19.473Z,14.00
